Main page
METAR-TAF:

METAR-TAF

Airports :

Paganella, Italy

latitude: 46-09N, longitude: 011-02E, elevation: 2125 m

Current weather observation

The report was made 23 minutes ago, at 06:55 UTC
Wind 10 kt from the South/Southwest
Temperature -1°C
Humidity 100%
Pressure 1017 hPa
Visibility less than 50 m
freezing fog

METAR: LIVP 160655Z 20010KT 0000 FZFG VV/// M01/M01 Q1017 RMK MON INVIS VAL INVIS VIS MIN 0000

Time: 08:18 (07:18 UTC)


TAF: missing

Weather observations and forecasts of more than 4000 airports (METAR and TAF reports).

The available stations are represented by yellow and red dots on the map.

Hover mouse over dot to see the name of the station.

Then click to see weather observations and forecasts.

To change the map : click on the green buttons with a black cross to zoom in, on the green button with a dash to zoom out, or on the green arrows for adjacent maps.


METAR-TAF: